Strona główna
METAR-TAF:

METAR-TAF

Lotnisko :

Port lotniczy Radom-Sadków

Radom, Polska

Szerokość geograficzna: 51-23-21N, Długość geograficzna: 21-12-49E, wysokość: 186 m

Aktualna obserwacja pogody

Raport powstał 25 minut temu, godzina 07:00 UTC
Wiatr 4 kt od północny wschód, zmienny między północ i wschód
Temperatura 19°C
Wilgotność 83%
Ciśnienie 1020 hPa
Widzialność 10 km lub więcej
Brak chmur poniżej 1500 m i brak chmur cumulonimbus

METAR: EPRA 230700Z 05004KT 010V090 CAVOK 19/16 Q1020

czas: 09:25 (07:25 UTC)

Prognoza

Raport powstał 1 godzina i 55 minut temu, godzina 05:30 UTC
Prognoza ważna od 23 godzina 06 UTC do 23 godzina 15 UTC
Wiatr 8 kt od północno-północny wschód
Widzialność 10 km lub więcej
Brak chmur poniżej 1500 m i brak chmur cumulonimbus
Prawdopodobieństwo 40% :
Przejściowo
od 23 godzina 06 UTC do 23 godzina 09 UTC
Wiatr 2 kt z kierunków zmiennych

TAF: EPRA 230530Z 2306/2315 03008KT CAVOK PROB40 TEMPO 2306/2309 VRB02KT

Obserwacja i prognoza pogody dla ponad 4000 lotnisk (raport METAR i TAF).

Dostępne stacje oznaczono żółtymi i czerwonymi punktami na mapie.

Najedź kursorem aby zobaczyć nazwę stacji.

Kliknij aby zobaczyć obserwacje i prognozy pogody.

Aby zmienić mapę: kliknij na zielony przycisk z czarnym krzyżykiem, aby powiększyć; na zielony przycisk z myślnikiem, aby pomniejszyć; na zielone strzałki, aby przejść do map sąsiednich.


METAR-TAF: